x

Newport, Or (nwpo3) Weather Station

11:00am - Tue 30th Sep 2014 All times are PDT. -7 hours from GMT.

  • Wind
    3mph, 5mph gusts
  • Air Temp 61°f
  • Sea Pressure 1022.2mb
  • Newport, Or
  • Newport, Or

More Historic Weather Station data

Upgrade to MSW Pro to gain access to the past 30 days of data for over 8000 Wavebouys and Weather Stations around the globe.

Join Pro

Comparision Forecast

View Surf forecast
   
Tue 09/30 11:00am 3 5 mph 1022.2mb 61f
10:00am 2
mph
1021.6mb 61f
9:00am 2 3 mph 1021.1mb 58f
8:00am  -  1 mph 1020.7mb 56f
7:00am 1 2 mph 1020.4mb 56f
6:00am 3
mph
1020.1mb 56f
5:00am 2
mph
1019.8mb 56f
4:00am 3 5 mph 1019.7mb 57f
3:00am 2 3 mph 1019.7mb 58f
2:00am 8 10 mph 1019.4mb 56f
1:00am 1 2 mph 1019.3mb 56f
12:00am 2
mph
1019.1mb 58f
Mon 09/29 11:00pm 6 7 mph 1019mb 60f
10:00pm 9 10 mph 1018.7mb 60f
9:00pm 13 14 mph 1018.3mb 60f
8:00pm 5 6 mph 1017.5mb 61f
7:00pm 8 9 mph 1017.3mb 61f
6:00pm 8 9 mph 1016.7mb 61f
5:00pm 8 9 mph 1016.2mb 61f
4:00pm 9 10 mph 1016.1mb 61f
3:00pm 6
mph
1015.9mb 61f
2:00pm 22 26 mph 1015.5mb 59f
1:00pm 22 26 mph 1015.8mb 59f
12:00pm 20 23 mph 1016mb 59f
11:00am 17 21 mph 1016mb 60f
10:00am 14 16 mph 1015.8mb 62f
9:00am 8 9 mph 1015.5mb 61f
8:00am 5 6 mph 1015.8mb 58f
7:00am 2
mph
1015.5mb 58f
6:00am 2
mph
1015.3mb 58f
5:00am 5 6 mph 1015mb 59f
4:00am  -  1 mph 1014.9mb 59f
3:00am 3
mph
1015mb 60f
2:00am  -  mph 1014.6mb 59f
1:00am 3 6 mph 1014.8mb 60f
12:00am 8 11 mph 1015mb 60f
Sun 09/28 11:00pm 2 3 mph 1014.6mb 60f
10:00pm  -  1 mph 1014.6mb 60f
9:00pm 7 8 mph 1014.8mb 60f
8:00pm 3 5 mph 1014.4mb 60f
7:00pm 7 8 mph 1014.5mb 61f
6:00pm 9 11 mph 1014.4mb 62f
5:00pm 5 6 mph 1014.4mb 62f
4:00pm 8 9 mph 1014.3mb 61f
3:00pm 5 7 mph 1014.3mb 61f
2:00pm 8 9 mph 1014.4mb 60f
1:00pm 10 11 mph 1014.8mb 59f
12:00pm 9 10 mph 1015.1mb 58f
11:00am 7 8 mph 1015mb 60f
10:00am 7 8 mph 1015.2mb 58f
9:00am 6 8 mph 1015.4mb 55f
8:00am 6
mph
1015.5mb 52f
7:00am 5 7 mph 1015.5mb 51f
6:00am 5
mph
1015.8mb 51f
5:00am 5 6 mph 1015.9mb 52f
4:00am 6
mph
1015.9mb 52f
3:00am 6
mph
1016.1mb 53f
2:00am 5
mph
1016.3mb 55f
1:00am 3
mph
1016.4mb 56f
12:00am 2 3 mph 1017mb 57f
Sat 09/27 11:00pm 3 5 mph 1017.2mb 58f
10:00pm 8 9 mph 1017.8mb 60f
9:00pm 21 25 mph 1017.7mb 61f
8:00pm 22 26 mph 1017.3mb 61f
7:00pm 24 28 mph 1017.1mb 61f
6:00pm 17 22 mph 1017.2mb 61f
5:00pm 17 18 mph 1017.6mb 60f
4:00pm 17 18 mph 1018mb 60f
3:00pm 16 18 mph 1018.5mb 60f
2:00pm 14 17 mph 1018.7mb 60f
1:00pm 13 14 mph 1019.3mb 59f
12:00pm 11 13 mph 1019.4mb 58f
11:00am 6 7 mph 1019.5mb 57f
10:00am 5
mph
1019.6mb 57f
9:00am 6 7 mph 1019.6mb 55f
8:00am 5 6 mph 1019.4mb 55f
7:00am 5 6 mph 1019.4mb 55f
6:00am 6 7 mph 1018.8mb 55f
5:00am 6 7 mph 1018.7mb 56f
4:00am 3
mph
1018.9mb 57f
3:00am 5 6 mph 1018.7mb 58f
2:00am 3 5 mph 1018.8mb 56f
1:00am 1
mph
1018.7mb 57f
12:00am  -  1 mph 1018.7mb 58f
Fri 09/26 11:00pm 2
mph
1018.8mb 58f
10:00pm  -  1 mph 1018.6mb 59f
9:00pm 3 5 mph 1018.5mb 60f
8:00pm 1 2 mph 1018.4mb 60f